sensor_id;sensor_type;location;lat;lon;timestamp;temperature;humidity
25328;DHT22;13279;51.300;12.394;2022-07-29T03:17:39;16.70;99.90
25328;DHT22;13279;51.300;12.394;2022-07-29T03:20:10;16.70;99.90
25328;DHT22;13279;51.300;12.394;2022-07-29T03:22:39;16.70;1.00
25328;DHT22;13279;51.300;12.394;2022-07-29T03:25:10;16.70;99.90
25328;DHT22;13279;51.300;12.394;2022-07-29T03:27:38;16.70;99.90
25328;DHT22;13279;51.300;12.394;2022-07-29T03:30:07;16.70;99.90
25328;DHT22;13279;51.300;12.394;2022-07-29T03:32:35;16.70;99.90
25328;DHT22;13279;51.300;12.394;2022-07-29T03:35:05;16.70;99.90
25328;DHT22;13279;51.300;12.394;2022-07-29T03:37:33;16.70;1.00
25328;DHT22;13279;51.300;12.394;2022-07-29T03:40:05;16.60;1.00
25328;DHT22;13279;51.300;12.394;2022-07-29T03:42:37;16.60;99.90
25328;DHT22;13279;51.300;12.394;2022-07-29T03:45:08;16.60;99.90
25328;DHT22;13279;51.300;12.394;2022-07-29T03:47:43;16.60;1.00
25328;DHT22;13279;51.300;12.394;2022-07-29T03:50:15;16.60;1.00
25328;DHT22;13279;51.300;12.394;2022-07-29T03:52:42;16.50;1.00
25328;DHT22;13279;51.300;12.394;2022-07-29T03:55:10;16.50;1.00
25328;DHT22;13279;51.300;12.394;2022-07-29T03:57:38;16.40;1.00
25328;DHT22;13279;51.300;12.394;2022-07-29T04:00:08;16.50;1.00
25328;DHT22;13279;51.300;12.394;2022-07-29T04:02:36;16.50;1.00
25328;DHT22;13279;51.300;12.394;2022-07-29T04:05:04;16.50;1.00
25328;DHT22;13279;51.300;12.394;2022-07-29T04:07:33;16.50;1.00
25328;DHT22;13279;51.300;12.394;2022-07-29T04:10:00;16.40;1.00
25328;DHT22;13279;51.300;12.394;2022-07-29T04:12:28;16.40;1.00
25328;DHT22;13279;51.300;12.394;2022-07-29T04:14:55;16.40;1.00
25328;DHT22;13279;51.300;12.394;2022-07-29T04:17:23;16.40;1.00
25328;DHT22;13279;51.300;12.394;2022-07-29T04:19:50;16.40;1.00
25328;DHT22;13279;51.300;12.394;2022-07-29T04:22:18;16.40;1.00
25328;DHT22;13279;51.300;12.394;2022-07-29T04:24:47;16.40;1.00
25328;DHT22;13279;51.300;12.394;2022-07-29T04:27:14;16.40;1.00
25328;DHT22;13279;51.300;12.394;2022-07-29T04:29:42;16.40;1.00
25328;DHT22;13279;51.300;12.394;2022-07-29T04:32:10;16.40;1.00
25328;DHT22;13279;51.300;12.394;2022-07-29T04:34:37;16.40;1.00
25328;DHT22;13279;51.300;12.394;2022-07-29T04:37:05;16.40;1.00
25328;DHT22;13279;51.300;12.394;2022-07-29T04:39:32;16.40;1.00
25328;DHT22;13279;51.300;12.394;2022-07-29T04:42:01;16.40;1.00
25328;DHT22;13279;51.300;12.394;2022-07-29T04:44:28;16.50;1.00
25328;DHT22;13279;51.300;12.394;2022-07-29T04:46:56;16.50;1.00
25328;DHT22;13279;51.300;12.394;2022-07-29T04:49:24;16.50;1.00
25328;DHT22;13279;51.300;12.394;2022-07-29T04:51:51;16.50;1.00
25328;DHT22;13279;51.300;12.394;2022-07-29T04:54:19;16.60;1.00
25328;DHT22;13279;51.300;12.394;2022-07-29T04:56:46;16.60;1.00
25328;DHT22;13279;51.300;12.394;2022-07-29T04:59:15;16.60;1.00
25328;DHT22;13279;51.300;12.394;2022-07-29T05:01:43;16.60;1.00
25328;DHT22;13279;51.300;12.394;2022-07-29T05:04:10;16.70;1.00
25328;DHT22;13279;51.300;12.394;2022-07-29T05:06:41;16.70;1.00
25328;DHT22;13279;51.300;12.394;2022-07-29T05:09:08;16.70;1.00
25328;DHT22;13279;51.300;12.394;2022-07-29T05:11:35;16.80;1.00
25328;DHT22;13279;51.300;12.394;2022-07-29T05:14:03;16.70;1.00
25328;DHT22;13279;51.300;12.394;2022-07-29T05:16:32;16.80;1.00
25328;DHT22;13279;51.300;12.394;2022-07-29T05:19:00;16.70;1.00
25328;DHT22;13279;51.300;12.394;2022-07-29T05:21:27;16.90;1.00
25328;DHT22;13279;51.300;12.394;2022-07-29T05:23:54;16.90;1.00
25328;DHT22;13279;51.300;12.394;2022-07-29T05:26:22;17.00;1.00
25328;DHT22;13279;51.300;12.394;2022-07-29T05:28:49;17.10;1.00
25328;DHT22;13279;51.300;12.394;2022-07-29T05:31:17;17.20;1.00
25328;DHT22;13279;51.300;12.394;2022-07-29T05:33:46;17.20;99.90
25328;DHT22;13279;51.300;12.394;2022-07-29T05:36:14;17.20;99.90
25328;DHT22;13279;51.300;12.394;2022-07-29T05:38:41;17.20;14.30
25328;DHT22;13279;51.300;12.394;2022-07-29T05:41:09;17.20;99.90
25328;DHT22;13279;51.300;12.394;2022-07-29T05:43:36;17.30;57.50
25328;DHT22;13279;51.300;12.394;2022-07-29T05:46:03;17.30;12.90
25328;DHT22;13279;51.300;12.394;2022-07-29T05:48:31;17.20;99.90
25328;DHT22;13279;51.300;12.394;2022-07-29T05:51:02;17.20;99.90
25328;DHT22;13279;51.300;12.394;2022-07-29T05:53:31;17.40;99.90
25328;DHT22;13279;51.300;12.394;2022-07-29T05:56:03;17.50;17.90
25328;DHT22;13279;51.300;12.394;2022-07-29T05:58:31;17.50;1.00
25328;DHT22;13279;51.300;12.394;2022-07-29T06:00:58;17.60;1.00
25328;DHT22;13279;51.300;12.394;2022-07-29T06:03:26;17.70;1.00
25328;DHT22;13279;51.300;12.394;2022-07-29T06:05:54;17.80;1.00
25328;DHT22;13279;51.300;12.394;2022-07-29T06:08:22;17.90;1.00
25328;DHT22;13279;51.300;12.394;2022-07-29T06:10:50;17.90;99.90
25328;DHT22;13279;51.300;12.394;2022-07-29T06:13:17;17.90;99.90
25328;DHT22;13279;51.300;12.394;2022-07-29T06:15:45;18.00;1.00
25328;DHT22;13279;51.300;12.394;2022-07-29T06:18:12;18.10;99.90
25328;DHT22;13279;51.300;12.394;2022-07-29T06:20:39;18.10;99.90
25328;DHT22;13279;51.300;12.394;2022-07-29T06:23:07;18.20;1.00
25328;DHT22;13279;51.300;12.394;2022-07-29T06:25:39;18.20;1.00
25328;DHT22;13279;51.300;12.394;2022-07-29T06:28:07;18.30;99.90
25328;DHT22;13279;51.300;12.394;2022-07-29T06:30:34;18.30;99.90
25328;DHT22;13279;51.300;12.394;2022-07-29T06:33:02;18.40;99.90
25328;DHT22;13279;51.300;12.394;2022-07-29T06:35:30;18.40;99.90
25328;DHT22;13279;51.300;12.394;2022-07-29T06:37:57;18.40;1.00
25328;DHT22;13279;51.300;12.394;2022-07-29T06:40:24;18.40;1.00
25328;DHT22;13279;51.300;12.394;2022-07-29T06:43:25;18.40;1.00
25328;DHT22;13279;51.300;12.394;2022-07-29T06:45:53;18.40;1.00
25328;DHT22;13279;51.300;12.394;2022-07-29T06:48:21;18.40;1.00
25328;DHT22;13279;51.300;12.394;2022-07-29T06:50:48;18.40;1.00
25328;DHT22;13279;51.300;12.394;2022-07-29T06:53:15;18.60;1.00
25328;DHT22;13279;51.300;12.394;2022-07-29T06:55:42;18.70;1.00
25328;DHT22;13279;51.300;12.394;2022-07-29T06:58:10;18.80;99.90
25328;DHT22;13279;51.300;12.394;2022-07-29T07:00:39;18.90;99.90
25328;DHT22;13279;51.300;12.394;2022-07-29T07:03:06;19.10;99.90
25328;DHT22;13279;51.300;12.394;2022-07-29T07:05:34;19.30;99.90
25328;DHT22;13279;51.300;12.394;2022-07-29T07:08:01;19.70;1.00
25328;DHT22;13279;51.300;12.394;2022-07-29T07:10:29;20.00;99.90
25328;DHT22;13279;51.300;12.394;2022-07-29T07:12:56;20.00;99.90
25328;DHT22;13279;51.300;12.394;2022-07-29T07:15:24;20.30;99.90
25328;DHT22;13279;51.300;12.394;2022-07-29T07:17:53;20.60;1.00
25328;DHT22;13279;51.300;12.394;2022-07-29T07:20:21;20.90;1.00
25328;DHT22;13279;51.300;12.394;2022-07-29T07:22:48;21.10;99.90
25328;DHT22;13279;51.300;12.394;2022-07-29T07:25:15;21.10;6.10
25328;DHT22;13279;51.300;12.394;2022-07-29T07:27:44;21.20;1.00
25328;DHT22;13279;51.300;12.394;2022-07-29T07:30:11;21.10;1.00
25328;DHT22;13279;51.300;12.394;2022-07-29T07:32:39;21.30;1.00
25328;DHT22;13279;51.300;12.394;2022-07-29T07:35:10;21.40;1.00
25328;DHT22;13279;51.300;12.394;2022-07-29T07:37:38;21.50;1.00
25328;DHT22;13279;51.300;12.394;2022-07-29T07:40:07;21.70;99.90
25328;DHT22;13279;51.300;12.394;2022-07-29T07:42:35;22.10;99.90
25328;DHT22;13279;51.300;12.394;2022-07-29T07:45:03;22.30;99.90
25328;DHT22;13279;51.300;12.394;2022-07-29T07:47:31;22.60;1.00
25328;DHT22;13279;51.300;12.394;2022-07-29T07:49:59;23.00;1.00
25328;DHT22;13279;51.300;12.394;2022-07-29T07:52:28;23.20;1.00
25328;DHT22;13279;51.300;12.394;2022-07-29T07:54:56;23.10;1.00
25328;DHT22;13279;51.300;12.394;2022-07-29T07:57:23;23.30;1.00
25328;DHT22;13279;51.300;12.394;2022-07-29T07:59:50;23.40;1.00
25328;DHT22;13279;51.300;12.394;2022-07-29T08:02:18;23.30;99.90
25328;DHT22;13279;51.300;12.394;2022-07-29T08:04:46;23.50;99.90
25328;DHT22;13279;51.300;12.394;2022-07-29T08:07:13;23.40;99.90
25328;DHT22;13279;51.300;12.394;2022-07-29T08:09:42;23.50;99.90
25328;DHT22;13279;51.300;12.394;2022-07-29T08:12:10;23.50;99.90
25328;DHT22;13279;51.300;12.394;2022-07-29T08:14:40;23.70;99.90
25328;DHT22;13279;51.300;12.394;2022-07-29T08:17:08;23.80;99.90
25328;DHT22;13279;51.300;12.394;2022-07-29T08:19:35;23.80;99.90
25328;DHT22;13279;51.300;12.394;2022-07-29T08:22:04;23.70;99.90
25328;DHT22;13279;51.300;12.394;2022-07-29T08:24:32;24.00;99.90
25328;DHT22;13279;51.300;12.394;2022-07-29T08:27:20;24.40;1.00
25328;DHT22;13279;51.300;12.394;2022-07-29T08:29:47;24.30;1.00
25328;DHT22;13279;51.300;12.394;2022-07-29T08:32:15;24.70;1.00
25328;DHT22;13279;51.300;12.394;2022-07-29T08:34:42;25.00;1.00
25328;DHT22;13279;51.300;12.394;2022-07-29T08:37:12;25.20;1.00
25328;DHT22;13279;51.300;12.394;2022-07-29T08:39:39;25.10;1.00
25328;DHT22;13279;51.300;12.394;2022-07-29T08:42:07;25.30;1.00
25328;DHT22;13279;51.300;12.394;2022-07-29T08:44:37;25.50;1.00
25328;DHT22;13279;51.300;12.394;2022-07-29T08:47:05;25.20;1.00
25328;DHT22;13279;51.300;12.394;2022-07-29T08:49:33;25.10;1.00
25328;DHT22;13279;51.300;12.394;2022-07-29T08:52:02;25.40;1.00
25328;DHT22;13279;51.300;12.394;2022-07-29T08:54:30;25.70;1.00
25328;DHT22;13279;51.300;12.394;2022-07-29T08:56:58;25.50;1.00
25328;DHT22;13279;51.300;12.394;2022-07-29T08:59:27;25.40;1.00
25328;DHT22;13279;51.300;12.394;2022-07-29T09:01:57;25.30;1.00
25328;DHT22;13279;51.300;12.394;2022-07-29T09:04:29;25.40;1.00
25328;DHT22;13279;51.300;12.394;2022-07-29T09:07:00;25.60;99.90
25328;DHT22;13279;51.300;12.394;2022-07-29T09:09:31;25.80;1.00
25328;DHT22;13279;51.300;12.394;2022-07-29T09:12:00;26.00;99.90
25328;DHT22;13279;51.300;12.394;2022-07-29T09:14:30;26.20;99.90
25328;DHT22;13279;51.300;12.394;2022-07-29T09:17:00;25.80;99.90
25328;DHT22;13279;51.300;12.394;2022-07-29T09:19:29;25.80;99.90
25328;DHT22;13279;51.300;12.394;2022-07-29T09:21:59;25.90;99.90
25328;DHT22;13279;51.300;12.394;2022-07-29T09:24:28;26.00;99.90
25328;DHT22;13279;51.300;12.394;2022-07-29T09:27:12;26.10;99.90
25328;DHT22;13279;51.300;12.394;2022-07-29T09:29:44;26.10;99.90
25328;DHT22;13279;51.300;12.394;2022-07-29T09:32:13;26.20;99.90
25328;DHT22;13279;51.300;12.394;2022-07-29T09:34:41;26.10;99.90
25328;DHT22;13279;51.300;12.394;2022-07-29T09:37:09;26.20;99.90
25328;DHT22;13279;51.300;12.394;2022-07-29T09:39:39;26.30;99.90
25328;DHT22;13279;51.300;12.394;2022-07-29T09:42:11;26.60;99.90
25328;DHT22;13279;51.300;12.394;2022-07-29T09:44:44;26.80;99.90
25328;DHT22;13279;51.300;12.394;2022-07-29T09:47:13;27.00;99.90
25328;DHT22;13279;51.300;12.394;2022-07-29T09:49:52;27.40;99.90
25328;DHT22;13279;51.300;12.394;2022-07-29T09:52:20;27.50;80.50
25328;DHT22;13279;51.300;12.394;2022-07-29T09:54:48;27.20;99.90
25328;DHT22;13279;51.300;12.394;2022-07-29T09:57:24;27.20;86.60
25328;DHT22;13279;51.300;12.394;2022-07-29T09:59:57;27.40;67.50
25328;DHT22;13279;51.300;12.394;2022-07-29T10:02:30;27.60;32.10
25328;DHT22;13279;51.300;12.394;2022-07-29T10:04:58;27.90;1.00
25328;DHT22;13279;51.300;12.394;2022-07-29T10:07:26;27.90;1.00
25328;DHT22;13279;51.300;12.394;2022-07-29T10:09:55;28.00;1.00
25328;DHT22;13279;51.300;12.394;2022-07-29T10:12:23;27.90;1.00
25328;DHT22;13279;51.300;12.394;2022-07-29T10:14:51;28.00;1.00
25328;DHT22;13279;51.300;12.394;2022-07-29T10:17:19;28.10;1.00
25328;DHT22;13279;51.300;12.394;2022-07-29T10:19:48;28.30;1.00
25328;DHT22;13279;51.300;12.394;2022-07-29T10:22:16;28.50;1.00
25328;DHT22;13279;51.300;12.394;2022-07-29T10:24:45;28.60;1.00
25328;DHT22;13279;51.300;12.394;2022-07-29T10:27:14;28.50;1.00
25328;DHT22;13279;51.300;12.394;2022-07-29T10:29:41;28.50;1.00
25328;DHT22;13279;51.300;12.394;2022-07-29T10:32:20;28.50;1.00
25328;DHT22;13279;51.300;12.394;2022-07-29T10:35:22;28.60;1.00
25328;DHT22;13279;51.300;12.394;2022-07-29T10:38:12;28.50;1.00
25328;DHT22;13279;51.300;12.394;2022-07-29T10:40:49;28.70;1.00
25328;DHT22;13279;51.300;12.394;2022-07-29T10:43:42;28.90;1.00
25328;DHT22;13279;51.300;12.394;2022-07-29T10:46:11;29.20;1.00
25328;DHT22;13279;51.300;12.394;2022-07-29T10:49:10;29.30;1.00
25328;DHT22;13279;51.300;12.394;2022-07-29T10:54:43;29.20;1.00
25328;DHT22;13279;51.300;12.394;2022-07-29T10:57:19;29.00;1.00
25328;DHT22;13279;51.300;12.394;2022-07-29T10:59:48;28.90;1.00
25328;DHT22;13279;51.300;12.394;2022-07-29T11:02:41;28.70;1.00
25328;DHT22;13279;51.300;12.394;2022-07-29T11:05:11;28.80;1.00
25328;DHT22;13279;51.300;12.394;2022-07-29T11:10:28;28.80;1.00
25328;DHT22;13279;51.300;12.394;2022-07-29T11:12:55;29.20;1.00
25328;DHT22;13279;51.300;12.394;2022-07-29T11:15:24;29.30;1.00
25328;DHT22;13279;51.300;12.394;2022-07-29T11:18:12;29.30;1.00
25328;DHT22;13279;51.300;12.394;2022-07-29T11:20:41;29.30;1.00
25328;DHT22;13279;51.300;12.394;2022-07-29T11:23:23;29.10;1.00
25328;DHT22;13279;51.300;12.394;2022-07-29T11:26:20;28.90;1.00
25328;DHT22;13279;51.300;12.394;2022-07-29T11:28:54;28.90;1.00
25328;DHT22;13279;51.300;12.394;2022-07-29T11:31:35;29.20;1.00
25328;DHT22;13279;51.300;12.394;2022-07-29T11:34:18;29.60;1.00
25328;DHT22;13279;51.300;12.394;2022-07-29T11:37:17;30.10;1.00
25328;DHT22;13279;51.300;12.394;2022-07-29T11:42:54;30.50;1.00
25328;DHT22;13279;51.300;12.394;2022-07-29T11:45:24;30.20;1.00
25328;DHT22;13279;51.300;12.394;2022-07-29T11:47:56;29.90;1.00
25328;DHT22;13279;51.300;12.394;2022-07-29T11:50:32;29.80;1.00
25328;DHT22;13279;51.300;12.394;2022-07-29T11:53:02;29.80;1.00
25328;DHT22;13279;51.300;12.394;2022-07-29T11:55:31;29.90;1.00
25328;DHT22;13279;51.300;12.394;2022-07-29T11:58:02;29.90;1.00
25328;DHT22;13279;51.300;12.394;2022-07-29T12:00:31;30.00;1.00
25328;DHT22;13279;51.300;12.394;2022-07-29T12:03:00;29.90;1.00
25328;DHT22;13279;51.300;12.394;2022-07-29T12:05:33;30.20;1.00
25328;DHT22;13279;51.300;12.394;2022-07-29T12:08:13;30.80;1.00
25328;DHT22;13279;51.300;12.394;2022-07-29T12:10:42;31.10;1.00
25328;DHT22;13279;51.300;12.394;2022-07-29T12:13:12;31.10;1.00
25328;DHT22;13279;51.300;12.394;2022-07-29T12:15:40;31.30;1.00
25328;DHT22;13279;51.300;12.394;2022-07-29T12:18:14;31.10;1.00
25328;DHT22;13279;51.300;12.394;2022-07-29T12:20:42;31.30;1.00
25328;DHT22;13279;51.300;12.394;2022-07-29T12:23:10;32.00;1.00
25328;DHT22;13279;51.300;12.394;2022-07-29T12:25:40;32.30;1.00
25328;DHT22;13279;51.300;12.394;2022-07-29T12:28:11;32.00;1.00
25328;DHT22;13279;51.300;12.394;2022-07-29T12:30:44;31.60;1.00
25328;DHT22;13279;51.300;12.394;2022-07-29T12:33:16;31.60;1.00
25328;DHT22;13279;51.300;12.394;2022-07-29T12:35:46;31.40;1.00
25328;DHT22;13279;51.300;12.394;2022-07-29T12:38:14;31.10;1.00
25328;DHT22;13279;51.300;12.394;2022-07-29T12:40:43;31.00;1.00
25328;DHT22;13279;51.300;12.394;2022-07-29T12:43:14;30.70;1.00
25328;DHT22;13279;51.300;12.394;2022-07-29T12:45:43;30.60;1.00
25328;DHT22;13279;51.300;12.394;2022-07-29T12:48:11;30.50;1.00
25328;DHT22;13279;51.300;12.394;2022-07-29T12:50:55;30.30;1.00
25328;DHT22;13279;51.300;12.394;2022-07-29T12:53:24;29.80;1.00
25328;DHT22;13279;51.300;12.394;2022-07-29T12:55:53;29.80;1.00
25328;DHT22;13279;51.300;12.394;2022-07-29T12:58:36;30.30;1.00
25328;DHT22;13279;51.300;12.394;2022-07-29T13:01:07;30.50;1.00
25328;DHT22;13279;51.300;12.394;2022-07-29T13:03:45;30.40;1.00
25328;DHT22;13279;51.300;12.394;2022-07-29T13:06:28;30.30;1.00
25328;DHT22;13279;51.300;12.394;2022-07-29T13:09:00;30.30;1.00
25328;DHT22;13279;51.300;12.394;2022-07-29T13:11:29;30.20;1.00
25328;DHT22;13279;51.300;12.394;2022-07-29T13:13:58;30.00;1.00
25328;DHT22;13279;51.300;12.394;2022-07-29T13:16:25;30.10;1.00
25328;DHT22;13279;51.300;12.394;2022-07-29T13:19:07;29.90;1.00
25328;DHT22;13279;51.300;12.394;2022-07-29T13:21:36;29.60;1.00
25328;DHT22;13279;51.300;12.394;2022-07-29T13:24:04;29.60;1.00
25328;DHT22;13279;51.300;12.394;2022-07-29T13:26:33;29.70;1.00
25328;DHT22;13279;51.300;12.394;2022-07-29T13:29:02;29.40;1.00
25328;DHT22;13279;51.300;12.394;2022-07-29T13:31:30;29.40;1.00
25328;DHT22;13279;51.300;12.394;2022-07-29T13:33:57;29.40;1.00
25328;DHT22;13279;51.300;12.394;2022-07-29T13:36:25;29.60;1.00
25328;DHT22;13279;51.300;12.394;2022-07-29T13:38:53;29.70;1.00
25328;DHT22;13279;51.300;12.394;2022-07-29T13:41:20;29.60;1.00
25328;DHT22;13279;51.300;12.394;2022-07-29T13:43:48;29.40;1.00
25328;DHT22;13279;51.300;12.394;2022-07-29T13:46:16;29.50;1.00
25328;DHT22;13279;51.300;12.394;2022-07-29T13:48:44;29.50;1.00
25328;DHT22;13279;51.300;12.394;2022-07-29T13:51:12;29.40;1.00
25328;DHT22;13279;51.300;12.394;2022-07-29T13:53:39;29.40;1.00
25328;DHT22;13279;51.300;12.394;2022-07-29T13:56:07;29.40;1.00
25328;DHT22;13279;51.300;12.394;2022-07-29T13:58:34;29.40;1.00
25328;DHT22;13279;51.300;12.394;2022-07-29T14:01:02;29.50;1.00
25328;DHT22;13279;51.300;12.394;2022-07-29T14:03:31;29.40;1.00
25328;DHT22;13279;51.300;12.394;2022-07-29T14:05:58;29.30;1.00
25328;DHT22;13279;51.300;12.394;2022-07-29T14:08:26;29.40;1.00
25328;DHT22;13279;51.300;12.394;2022-07-29T14:10:54;29.30;1.00
25328;DHT22;13279;51.300;12.394;2022-07-29T14:13:22;29.30;1.00
25328;DHT22;13279;51.300;12.394;2022-07-29T14:15:49;29.10;1.00
25328;DHT22;13279;51.300;12.394;2022-07-29T14:18:16;29.10;1.00
25328;DHT22;13279;51.300;12.394;2022-07-29T14:20:45;29.20;1.00
25328;DHT22;13279;51.300;12.394;2022-07-29T14:23:13;29.30;1.00
25328;DHT22;13279;51.300;12.394;2022-07-29T14:25:40;29.40;1.00
25328;DHT22;13279;51.300;12.394;2022-07-29T14:28:08;29.20;1.00
25328;DHT22;13279;51.300;12.394;2022-07-29T14:30:35;28.90;1.00
25328;DHT22;13279;51.300;12.394;2022-07-29T14:33:03;28.80;1.00
25328;DHT22;13279;51.300;12.394;2022-07-29T14:35:30;28.80;1.00
25328;DHT22;13279;51.300;12.394;2022-07-29T14:37:59;28.80;1.00
25328;DHT22;13279;51.300;12.394;2022-07-29T14:40:27;28.80;1.00
25328;DHT22;13279;51.300;12.394;2022-07-29T14:42:54;28.80;1.00
25328;DHT22;13279;51.300;12.394;2022-07-29T14:45:22;28.80;1.00
25328;DHT22;13279;51.300;12.394;2022-07-29T14:47:49;28.90;1.00
25328;DHT22;13279;51.300;12.394;2022-07-29T14:50:17;29.00;1.00
25328;DHT22;13279;51.300;12.394;2022-07-29T14:52:45;29.00;1.00
25328;DHT22;13279;51.300;12.394;2022-07-29T14:55:14;29.10;1.00
25328;DHT22;13279;51.300;12.394;2022-07-29T14:57:41;29.10;1.00
25328;DHT22;13279;51.300;12.394;2022-07-29T15:00:10;29.10;1.00
25328;DHT22;13279;51.300;12.394;2022-07-29T15:02:38;29.00;1.00
25328;DHT22;13279;51.300;12.394;2022-07-29T15:05:07;28.90;1.00
25328;DHT22;13279;51.300;12.394;2022-07-29T15:07:38;29.00;1.00
25328;DHT22;13279;51.300;12.394;2022-07-29T15:10:06;29.00;1.00
25328;DHT22;13279;51.300;12.394;2022-07-29T15:12:35;29.00;1.00
25328;DHT22;13279;51.300;12.394;2022-07-29T15:15:03;29.10;1.00
25328;DHT22;13279;51.300;12.394;2022-07-29T15:17:30;29.00;1.00
25328;DHT22;13279;51.300;12.394;2022-07-29T15:19:58;28.90;1.00
25328;DHT22;13279;51.300;12.394;2022-07-29T15:22:25;28.90;1.00
25328;DHT22;13279;51.300;12.394;2022-07-29T15:24:53;28.80;1.00
25328;DHT22;13279;51.300;12.394;2022-07-29T15:27:20;28.70;1.00
25328;DHT22;13279;51.300;12.394;2022-07-29T15:29:49;28.80;1.00
25328;DHT22;13279;51.300;12.394;2022-07-29T15:32:16;28.80;1.00
25328;DHT22;13279;51.300;12.394;2022-07-29T15:34:44;28.80;1.00
25328;DHT22;13279;51.300;12.394;2022-07-29T15:37:11;28.80;1.00
25328;DHT22;13279;51.300;12.394;2022-07-29T15:39:39;28.90;1.00
25328;DHT22;13279;51.300;12.394;2022-07-29T15:42:06;28.70;1.00
25328;DHT22;13279;51.300;12.394;2022-07-29T15:44:34;27.90;1.00
25328;DHT22;13279;51.300;12.394;2022-07-29T15:47:03;27.30;1.00
25328;DHT22;13279;51.300;12.394;2022-07-29T15:49:31;26.90;1.00
25328;DHT22;13279;51.300;12.394;2022-07-29T15:51:59;26.50;99.90
25328;DHT22;13279;51.300;12.394;2022-07-29T15:54:27;26.20;1.00
25328;DHT22;13279;51.300;12.394;2022-07-29T15:56:55;26.00;1.00
25328;DHT22;13279;51.300;12.394;2022-07-29T15:59:22;26.00;99.90
25328;DHT22;13279;51.300;12.394;2022-07-29T16:01:50;25.70;1.00
25328;DHT22;13279;51.300;12.394;2022-07-29T16:04:19;25.50;1.00
25328;DHT22;13279;51.300;12.394;2022-07-29T16:06:47;25.40;99.90
25328;DHT22;13279;51.300;12.394;2022-07-29T16:09:15;25.30;1.00
25328;DHT22;13279;51.300;12.394;2022-07-29T16:11:43;25.30;60.30
25328;DHT22;13279;51.300;12.394;2022-07-29T16:14:11;25.30;99.90
25328;DHT22;13279;51.300;12.394;2022-07-29T16:16:39;25.30;1.00
25328;DHT22;13279;51.300;12.394;2022-07-29T16:19:06;25.40;1.00
25328;DHT22;13279;51.300;12.394;2022-07-29T16:21:37;25.40;1.00
25328;DHT22;13279;51.300;12.394;2022-07-29T16:24:06;25.30;1.00
25328;DHT22;13279;51.300;12.394;2022-07-29T16:26:34;25.20;1.00
25328;DHT22;13279;51.300;12.394;2022-07-29T16:29:02;25.10;99.90
25328;DHT22;13279;51.300;12.394;2022-07-29T16:31:30;25.00;1.00
25328;DHT22;13279;51.300;12.394;2022-07-29T16:33:57;25.00;1.00
25328;DHT22;13279;51.300;12.394;2022-07-29T16:36:25;25.00;1.00
25328;DHT22;13279;51.300;12.394;2022-07-29T16:38:54;25.00;1.00
25328;DHT22;13279;51.300;12.394;2022-07-29T16:41:21;25.00;1.00
25328;DHT22;13279;51.300;12.394;2022-07-29T16:43:48;25.00;1.00
25328;DHT22;13279;51.300;12.394;2022-07-29T16:46:16;25.10;1.00
25328;DHT22;13279;51.300;12.394;2022-07-29T16:48:43;25.20;1.00
25328;DHT22;13279;51.300;12.394;2022-07-29T16:51:11;25.30;1.00
25328;DHT22;13279;51.300;12.394;2022-07-29T16:53:38;25.50;99.90
25328;DHT22;13279;51.300;12.394;2022-07-29T16:56:09;25.50;99.90
25328;DHT22;13279;51.300;12.394;2022-07-29T16:58:36;25.40;99.90
25328;DHT22;13279;51.300;12.394;2022-07-29T17:01:03;25.40;99.90
25328;DHT22;13279;51.300;12.394;2022-07-29T17:03:31;25.40;99.90
25328;DHT22;13279;51.300;12.394;2022-07-29T17:05:59;25.60;99.90
25328;DHT22;13279;51.300;12.394;2022-07-29T17:08:26;25.60;99.90
25328;DHT22;13279;51.300;12.394;2022-07-29T17:10:53;25.60;99.90
25328;DHT22;13279;51.300;12.394;2022-07-29T17:13:22;25.70;99.90
25328;DHT22;13279;51.300;12.394;2022-07-29T17:15:49;25.60;99.90
25328;DHT22;13279;51.300;12.394;2022-07-29T17:18:17;25.60;1.00
25328;DHT22;13279;51.300;12.394;2022-07-29T17:20:44;25.40;99.90
25328;DHT22;13279;51.300;12.394;2022-07-29T17:23:12;25.40;1.00
25328;DHT22;13279;51.300;12.394;2022-07-29T17:25:39;25.40;1.00
25328;DHT22;13279;51.300;12.394;2022-07-29T17:28:07;25.30;99.90
25328;DHT22;13279;51.300;12.394;2022-07-29T17:30:36;25.30;99.90
25328;DHT22;13279;51.300;12.394;2022-07-29T17:33:03;25.30;99.90
25328;DHT22;13279;51.300;12.394;2022-07-29T17:35:30;25.30;74.00
25328;DHT22;13279;51.300;12.394;2022-07-29T17:38:15;25.20;1.00
25328;DHT22;13279;51.300;12.394;2022-07-29T17:40:43;25.10;99.90
25328;DHT22;13279;51.300;12.394;2022-07-29T17:43:10;25.10;1.00
25328;DHT22;13279;51.300;12.394;2022-07-29T17:45:40;25.10;1.00
25328;DHT22;13279;51.300;12.394;2022-07-29T17:48:08;25.00;99.90
25328;DHT22;13279;51.300;12.394;2022-07-29T17:50:35;25.00;99.90
25328;DHT22;13279;51.300;12.394;2022-07-29T17:53:03;24.90;1.00
25328;DHT22;13279;51.300;12.394;2022-07-29T17:55:30;24.80;1.00
25328;DHT22;13279;51.300;12.394;2022-07-29T17:57:58;24.80;1.00
25328;DHT22;13279;51.300;12.394;2022-07-29T18:00:26;24.80;99.90
25328;DHT22;13279;51.300;12.394;2022-07-29T18:02:54;24.80;69.60
25328;DHT22;13279;51.300;12.394;2022-07-29T18:05:22;24.70;99.90
25328;DHT22;13279;51.300;12.394;2022-07-29T18:07:49;24.60;99.90
25328;DHT22;13279;51.300;12.394;2022-07-29T18:10:17;24.60;1.00
25328;DHT22;13279;51.300;12.394;2022-07-29T18:12:44;24.50;1.00
25328;DHT22;13279;51.300;12.394;2022-07-29T18:15:12;24.50;1.00
25328;DHT22;13279;51.300;12.394;2022-07-29T18:17:39;24.50;1.00
25328;DHT22;13279;51.300;12.394;2022-07-29T18:20:09;24.50;1.00
25328;DHT22;13279;51.300;12.394;2022-07-29T18:22:37;24.50;1.00
25328;DHT22;13279;51.300;12.394;2022-07-29T18:25:06;24.50;1.00
25328;DHT22;13279;51.300;12.394;2022-07-29T18:27:34;24.40;1.00
25328;DHT22;13279;51.300;12.394;2022-07-29T18:30:01;24.40;1.00
25328;DHT22;13279;51.300;12.394;2022-07-29T18:32:29;24.40;1.00
25328;DHT22;13279;51.300;12.394;2022-07-29T18:34:56;24.40;1.00
25328;DHT22;13279;51.300;12.394;2022-07-29T18:37:29;24.40;99.90
25328;DHT22;13279;51.300;12.394;2022-07-29T18:39:56;24.40;1.00
25328;DHT22;13279;51.300;12.394;2022-07-29T18:42:24;24.30;99.90
25328;DHT22;13279;51.300;12.394;2022-07-29T18:44:52;24.20;62.20
25328;DHT22;13279;51.300;12.394;2022-07-29T18:47:19;24.10;44.60
25328;DHT22;13279;51.300;12.394;2022-07-29T18:49:47;24.00;1.00
25328;DHT22;13279;51.300;12.394;2022-07-29T18:52:15;24.00;63.10
25328;DHT22;13279;51.300;12.394;2022-07-29T18:54:44;23.90;19.50
25328;DHT22;13279;51.300;12.394;2022-07-29T18:57:11;23.90;29.10
25328;DHT22;13279;51.300;12.394;2022-07-29T18:59:39;23.90;99.90
25328;DHT22;13279;51.300;12.394;2022-07-29T19:02:08;23.90;1.00
25328;DHT22;13279;51.300;12.394;2022-07-29T19:04:35;23.80;1.00
25328;DHT22;13279;51.300;12.394;2022-07-29T19:07:03;23.70;73.10